createdAt,value
2022-08-05T00:01:56.811Z,16.75
2022-08-05T00:04:09.574Z,25.52
2022-08-05T00:06:29.034Z,19.25
2022-08-05T00:08:36.158Z,13.93
2022-08-05T00:10:37.902Z,12.80
2022-08-05T00:12:55.765Z,14.13
2022-08-05T00:14:58.006Z,12.48
2022-08-05T00:17:01.840Z,11.13
2022-08-05T00:19:04.653Z,13.88
2022-08-05T00:21:08.414Z,11.77
2022-08-05T00:23:12.905Z,12.75
2022-08-05T00:25:14.780Z,11.65
2022-08-05T00:27:18.001Z,13.00
2022-08-05T00:29:22.384Z,12.93
2022-08-05T00:31:53.884Z,14.18
2022-08-05T00:34:55.585Z,10.38
2022-08-05T00:36:16.120Z,10.90
2022-08-05T00:38:33.766Z,12.63
2022-08-05T00:40:51.969Z,12.68
2022-08-05T00:42:55.536Z,9.50
2022-08-05T00:44:57.048Z,10.32
2022-08-05T00:47:04.257Z,13.52
2022-08-05T00:49:07.839Z,12.98
2022-08-05T00:51:50.682Z,10.65
2022-08-05T00:54:00.002Z,16.67
2022-08-05T00:55:54.095Z,14.02
2022-08-05T00:57:58.977Z,25.45
2022-08-05T01:00:02.073Z,10.88
2022-08-05T01:02:03.813Z,14.85
2022-08-05T01:04:13.802Z,12.52
2022-08-05T01:06:16.082Z,13.73
2022-08-05T01:08:41.838Z,11.57
2022-08-05T01:10:52.332Z,14.98
2022-08-05T01:13:12.881Z,16.15
2022-08-05T01:15:35.656Z,14.80
2022-08-05T01:17:45.536Z,14.20
2022-08-05T01:20:05.852Z,11.27
2022-08-05T01:22:24.114Z,12.95
2022-08-05T01:24:50.814Z,12.23
2022-08-05T01:27:19.174Z,16.42
2022-08-05T01:29:30.702Z,17.50
2022-08-05T01:31:44.917Z,12.52
2022-08-05T01:33:53.489Z,13.52
2022-08-05T01:35:59.175Z,14.07
2022-08-05T01:38:02.710Z,12.90
2022-08-05T01:40:07.253Z,13.30
2022-08-05T01:42:13.775Z,11.73
2022-08-05T01:44:17.987Z,13.00
2022-08-05T01:46:42.099Z,12.65
2022-08-05T01:48:49.729Z,10.68
2022-08-05T01:50:53.786Z,10.85
2022-08-05T01:52:59.804Z,21.83
2022-08-05T01:55:05.468Z,16.73
2022-08-05T01:58:09.489Z,17.08
2022-08-05T01:59:34.872Z,12.75
2022-08-05T02:01:40.255Z,16.60
2022-08-05T02:03:46.401Z,11.85
2022-08-05T02:05:49.089Z,17.08
2022-08-05T02:07:57.841Z,15.02
2022-08-05T02:10:03.862Z,14.43
2022-08-05T02:12:10.168Z,13.20
2022-08-05T02:14:15.569Z,11.60
2022-08-05T02:16:22.329Z,10.95
2022-08-05T02:18:35.061Z,10.93
2022-08-05T02:20:44.136Z,11.45
2022-08-05T02:22:55.703Z,12.82
2022-08-05T02:25:02.565Z,11.57
2022-08-05T02:27:09.860Z,11.48
2022-08-05T02:29:21.618Z,11.65
2022-08-05T02:31:35.007Z,11.00
2022-08-05T02:33:42.068Z,12.52
2022-08-05T02:35:55.862Z,15.63
2022-08-05T02:38:02.295Z,12.13
2022-08-05T02:40:06.663Z,12.00
2022-08-05T02:42:11.827Z,8.35
2022-08-05T02:44:30.116Z,9.05
2022-08-05T02:46:31.901Z,9.90
2022-08-05T02:48:35.297Z,10.73
2022-08-05T02:50:38.739Z,9.07
2022-08-05T02:52:46.647Z,8.52
2022-08-05T02:54:50.675Z,11.30
2022-08-05T02:56:54.779Z,10.25
2022-08-05T02:58:57.622Z,10.65
2022-08-05T03:01:02.231Z,10.20
2022-08-05T03:03:10.099Z,10.05
2022-08-05T03:05:13.603Z,8.35
2022-08-05T03:08:00.115Z,7.97
2022-08-05T03:09:43.897Z,10.30
2022-08-05T03:11:57.869Z,7.35
2022-08-05T03:14:03.036Z,8.25
2022-08-05T03:16:05.725Z,8.57
2022-08-05T03:18:10.959Z,8.13
2022-08-05T03:20:13.702Z,6.60
2022-08-05T03:22:18.881Z,8.00
2022-08-05T03:24:29.429Z,7.93
2022-08-05T03:26:32.772Z,7.97
2022-08-05T03:28:34.805Z,7.10
2022-08-05T03:30:38.322Z,8.63
2022-08-05T03:32:43.602Z,7.57
2022-08-05T03:34:51.330Z,11.07
2022-08-05T03:36:53.676Z,7.80
2022-08-05T03:38:57.388Z,10.13
2022-08-05T03:40:59.224Z,9.68
2022-08-05T03:43:01.429Z,9.40
2022-08-05T03:45:21.857Z,8.68
2022-08-05T03:47:24.974Z,11.40
2022-08-05T03:49:31.182Z,10.38
2022-08-05T03:52:36.505Z,8.38
2022-08-05T03:56:01.492Z,9.20
2022-08-05T03:56:50.755Z,8.73
2022-08-05T03:58:59.807Z,9.07
2022-08-05T04:01:04.475Z,7.57
2022-08-05T04:03:07.819Z,11.40
2022-08-05T04:05:17.821Z,7.82
2022-08-05T04:07:20.151Z,9.52
2022-08-05T04:09:29.207Z,9.38
2022-08-05T04:11:47.239Z,8.75
2022-08-05T04:13:53.496Z,7.35
2022-08-05T04:16:04.541Z,9.55
2022-08-05T04:18:09.406Z,7.78
2022-08-05T04:20:17.967Z,6.97
2022-08-05T04:22:21.615Z,7.78
2022-08-05T04:24:23.165Z,8.88
2022-08-05T04:26:32.373Z,7.80
2022-08-05T04:28:34.199Z,8.63
2022-08-05T04:30:36.344Z,7.32
2022-08-05T04:32:38.160Z,7.63
2022-08-05T04:34:42.886Z,13.77
2022-08-05T04:36:50.231Z,7.95
2022-08-05T04:38:52.127Z,8.68
2022-08-05T04:40:53.763Z,8.60
2022-08-05T04:42:56.629Z,12.75
2022-08-05T04:44:58.199Z,12.80
2022-08-05T04:47:09.848Z,7.10
2022-08-05T04:49:14.504Z,7.88
2022-08-05T04:51:16.519Z,8.02
2022-08-05T04:53:19.146Z,8.93
2022-08-05T04:56:33.983Z,7.32
2022-08-05T04:57:47.576Z,12.15
2022-08-05T04:59:51.034Z,8.18
2022-08-05T05:02:07.079Z,7.95
2022-08-05T05:04:14.173Z,8.48
2022-08-05T05:06:40.068Z,9.15
2022-08-05T05:08:37.579Z,8.52
2022-08-05T05:10:47.292Z,8.82
2022-08-05T05:12:57.881Z,8.68
2022-08-05T05:15:03.792Z,6.65
2022-08-05T05:17:07.510Z,8.38
2022-08-05T05:19:18.560Z,6.63
2022-08-05T05:21:21.183Z,7.43
2022-08-05T05:23:39.247Z,8.20
2022-08-05T05:25:50.452Z,6.07
2022-08-05T05:27:55.835Z,6.35
2022-08-05T05:30:04.434Z,7.47
2022-08-05T05:32:08.209Z,8.00
2022-08-05T05:34:14.305Z,6.70
2022-08-05T05:36:17.601Z,6.88
2022-08-05T05:38:26.730Z,9.38
2022-08-05T05:40:30.104Z,9.23
2022-08-05T05:42:33.685Z,8.65
2022-08-05T05:44:37.718Z,7.18
2022-08-05T05:46:46.222Z,10.35
2022-08-05T05:48:50.760Z,7.97
2022-08-05T05:50:52.404Z,8.07
2022-08-05T05:52:53.964Z,6.50
2022-08-05T05:54:55.562Z,6.55
2022-08-05T05:56:57.109Z,9.35
2022-08-05T05:59:03.307Z,6.93
2022-08-05T06:01:13.050Z,9.02
2022-08-05T06:03:28.624Z,12.15
2022-08-05T06:05:39.965Z,10.27
2022-08-05T06:08:01.413Z,8.77
2022-08-05T06:10:07.095Z,9.38
2022-08-05T06:12:12.108Z,23.00
2022-08-05T06:14:13.796Z,14.85
2022-08-05T06:16:30.014Z,12.82
2022-08-05T06:18:33.685Z,11.57
2022-08-05T06:20:42.237Z,13.82
2022-08-05T06:22:49.315Z,26.83
2022-08-05T06:24:52.510Z,17.65
2022-08-05T06:26:54.219Z,12.13
2022-08-05T06:28:57.082Z,13.57
2022-08-05T06:30:58.626Z,15.52
2022-08-05T06:33:00.177Z,10.57
2022-08-05T06:35:06.111Z,8.63
2022-08-05T06:37:18.618Z,7.45
2022-08-05T06:39:40.261Z,5.95
2022-08-05T06:41:43.215Z,7.65
2022-08-05T06:43:58.550Z,13.73
2022-08-05T06:46:03.675Z,6.32
2022-08-05T06:48:36.960Z,8.75
2022-08-05T06:50:30.370Z,9.52
2022-08-05T06:52:36.988Z,5.75
2022-08-05T06:54:39.898Z,9.50
2022-08-05T06:56:41.418Z,6.95
2022-08-05T06:58:57.210Z,13.73
2022-08-05T07:00:59.262Z,6.60
2022-08-05T07:03:00.861Z,8.32
2022-08-05T07:05:02.393Z,6.68
2022-08-05T07:07:07.877Z,10.23
2022-08-05T07:09:11.153Z,6.13
2022-08-05T07:11:14.999Z,5.40
2022-08-05T07:13:17.504Z,7.03
2022-08-05T07:16:00.920Z,16.38
2022-08-05T07:18:07.464Z,26.15
2022-08-05T07:20:32.084Z,7.65
2022-08-05T07:22:33.365Z,10.65
2022-08-05T07:24:43.990Z,8.35
2022-08-05T07:26:55.299Z,15.82
2022-08-05T07:28:56.855Z,30.45
2022-08-05T07:31:01.372Z,8.35
2022-08-05T07:33:09.293Z,8.00
2022-08-05T07:36:03.189Z,7.43
2022-08-05T07:37:35.960Z,9.32
2022-08-05T07:40:26.027Z,5.20
2022-08-05T07:42:14.449Z,7.78
2022-08-05T07:44:19.386Z,9.70
2022-08-05T07:46:25.331Z,7.75
2022-08-05T07:49:02.152Z,7.22
2022-08-05T07:50:48.970Z,5.15
2022-08-05T07:52:51.347Z,7.47
2022-08-05T07:54:54.242Z,6.22
2022-08-05T07:57:13.886Z,7.88
2022-08-05T07:59:17.361Z,5.90
2022-08-05T08:01:24.758Z,6.82
2022-08-05T08:03:44.911Z,5.90
2022-08-05T08:05:49.589Z,5.10
2022-08-05T08:07:59.049Z,7.35
2022-08-05T08:10:04.561Z,5.90
2022-08-05T08:12:19.215Z,5.95
2022-08-05T08:14:28.205Z,6.47
2022-08-05T08:16:50.259Z,6.82
2022-08-05T08:18:51.388Z,8.63
2022-08-05T08:21:02.242Z,9.40
2022-08-05T08:23:05.353Z,7.07
2022-08-05T08:25:16.386Z,6.88
2022-08-05T08:27:19.271Z,4.97
2022-08-05T08:29:45.554Z,5.82
2022-08-05T08:31:43.013Z,6.97
2022-08-05T08:33:45.225Z,7.63
2022-08-05T08:35:53.984Z,5.85
2022-08-05T08:38:11.606Z,7.00
2022-08-05T08:40:19.609Z,6.35
2022-08-05T08:42:46.742Z,5.53
2022-08-05T08:45:18.161Z,5.75
2022-08-05T08:47:46.782Z,6.93
2022-08-05T08:50:07.799Z,6.07
2022-08-05T08:52:03.623Z,5.60
2022-08-05T08:54:07.992Z,5.72
2022-08-05T08:56:10.901Z,6.22
2022-08-05T08:58:15.578Z,8.45
2022-08-05T09:00:19.463Z,5.85
2022-08-05T09:02:22.022Z,6.57
2022-08-05T09:04:30.554Z,4.95
2022-08-05T09:06:32.500Z,7.68
2022-08-05T09:08:40.239Z,7.22
2022-08-05T09:10:42.338Z,5.93
2022-08-05T09:12:51.048Z,8.00
2022-08-05T09:15:04.069Z,6.43
2022-08-05T09:17:09.755Z,5.95
2022-08-05T09:19:36.596Z,5.70
2022-08-05T09:22:23.299Z,5.40
2022-08-05T09:24:13.898Z,5.85
2022-08-05T09:26:20.802Z,6.10
2022-08-05T09:28:32.234Z,5.75
2022-08-05T09:30:34.711Z,6.35
2022-08-05T09:32:42.987Z,6.90
2022-08-05T09:34:49.733Z,7.45
2022-08-05T09:36:56.380Z,5.20
2022-08-05T09:39:03.350Z,4.43
2022-08-05T09:41:18.316Z,9.05
2022-08-05T09:43:41.159Z,6.75
2022-08-05T09:46:06.379Z,6.93
2022-08-05T09:48:24.303Z,8.93
2022-08-05T09:50:38.784Z,5.30
2022-08-05T09:52:45.903Z,4.82
2022-08-05T09:54:56.397Z,5.53
2022-08-05T09:57:01.253Z,5.40
2022-08-05T09:59:07.682Z,4.55
2022-08-05T10:01:14.667Z,5.38
2022-08-05T10:03:17.322Z,6.95
2022-08-05T10:05:24.374Z,6.22
2022-08-05T10:08:36.587Z,5.60
2022-08-05T10:10:15.010Z,5.47
2022-08-05T10:12:18.566Z,7.07
2022-08-05T10:14:34.457Z,6.35
2022-08-05T10:16:37.871Z,4.45
2022-08-05T10:18:50.743Z,6.75
2022-08-05T10:20:54.835Z,6.72
2022-08-05T10:22:56.804Z,5.90
2022-08-05T10:25:00.302Z,5.63
2022-08-05T10:27:03.187Z,5.70
2022-08-05T10:29:04.832Z,5.43
2022-08-05T10:32:49.511Z,6.30
2022-08-05T10:33:35.127Z,5.72
2022-08-05T10:35:40.598Z,9.20
2022-08-05T10:37:47.481Z,11.27
2022-08-05T10:40:03.610Z,8.52
2022-08-05T10:42:32.582Z,12.82
2022-08-05T10:44:37.696Z,12.13
2022-08-05T10:46:45.850Z,8.30
2022-08-05T10:48:56.501Z,8.38
2022-08-05T10:51:01.525Z,8.05
2022-08-05T10:53:05.017Z,10.85
2022-08-05T10:55:09.318Z,7.47
2022-08-05T10:57:24.991Z,8.77
2022-08-05T11:00:02.400Z,6.45
2022-08-05T11:02:14.811Z,36.00
2022-08-05T11:04:30.967Z,35.33
2022-08-05T11:06:34.541Z,7.78
2022-08-05T11:08:38.027Z,6.60
2022-08-05T11:10:50.376Z,6.63
2022-08-05T11:13:11.319Z,6.38
2022-08-05T11:15:21.300Z,5.60
2022-08-05T11:17:59.486Z,7.18
2022-08-05T11:20:16.760Z,6.97
2022-08-05T11:22:42.355Z,9.57
2022-08-05T11:25:01.623Z,9.43
2022-08-05T11:27:45.712Z,5.70
2022-08-05T11:29:59.451Z,5.18
2022-08-05T11:32:25.140Z,5.93
2022-08-05T11:34:39.762Z,4.68
2022-08-05T11:36:46.931Z,4.85
2022-08-05T11:38:55.073Z,4.97
2022-08-05T11:41:36.820Z,5.10
2022-08-05T11:44:04.479Z,4.53
2022-08-05T11:46:16.182Z,6.93
2022-08-05T11:48:09.708Z,6.75
2022-08-05T11:50:14.665Z,6.18
2022-08-05T11:52:23.427Z,8.35
2022-08-05T11:54:33.131Z,5.57
2022-08-05T11:56:50.428Z,7.18
2022-08-05T11:58:53.694Z,9.50
2022-08-05T12:01:01.480Z,8.13
2022-08-05T12:03:28.406Z,11.35
2022-08-05T12:05:39.540Z,8.02
2022-08-05T12:08:04.370Z,8.45
2022-08-05T12:10:09.085Z,7.95
2022-08-05T12:12:13.018Z,12.05
2022-08-05T12:14:14.697Z,13.73
2022-08-05T12:16:19.496Z,15.48
2022-08-05T12:18:32.623Z,14.93
2022-08-05T12:20:35.880Z,13.23
2022-08-05T12:22:37.828Z,15.73
2022-08-05T12:24:43.633Z,14.35
2022-08-05T12:26:53.454Z,11.85
2022-08-05T12:28:54.961Z,13.77
2022-08-05T12:30:56.861Z,12.70
2022-08-05T12:32:58.481Z,10.60
2022-08-05T12:35:09.490Z,11.27
2022-08-05T12:37:21.423Z,6.60
2022-08-05T12:39:34.255Z,8.50
2022-08-05T12:41:43.998Z,7.70
2022-08-05T12:43:50.347Z,7.32
2022-08-05T12:45:53.023Z,4.40
2022-08-05T12:48:01.463Z,6.53
2022-08-05T12:50:17.567Z,4.95
2022-08-05T12:52:28.337Z,5.25
2022-08-05T12:54:32.188Z,5.35
2022-08-05T12:56:34.918Z,4.32
2022-08-05T12:58:53.664Z,15.05
2022-08-05T13:02:00.555Z,5.90
2022-08-05T13:03:18.906Z,5.47
2022-08-05T13:05:21.162Z,5.28
2022-08-05T13:07:57.772Z,5.00
2022-08-05T13:09:51.150Z,4.47
2022-08-05T13:12:03.661Z,9.93
2022-08-05T13:14:19.471Z,5.00
2022-08-05T13:16:25.071Z,7.72
2022-08-05T13:18:37.740Z,8.45
2022-08-05T13:20:40.412Z,5.45
2022-08-05T13:22:47.395Z,8.43
2022-08-05T13:24:57.404Z,5.85
2022-08-05T13:26:59.461Z,7.82
2022-08-05T13:29:03.240Z,6.85
2022-08-05T13:31:14.116Z,7.32
2022-08-05T13:34:21.465Z,4.85
2022-08-05T13:35:47.543Z,5.68
2022-08-05T13:37:55.766Z,5.72
2022-08-05T13:40:15.867Z,6.65
2022-08-05T13:42:18.468Z,6.28
2022-08-05T13:44:20.008Z,5.30
2022-08-05T13:46:51.006Z,4.90
2022-08-05T13:48:57.473Z,6.25
2022-08-05T13:51:05.946Z,7.13
2022-08-05T13:53:15.613Z,6.05
2022-08-05T13:55:40.753Z,5.30
2022-08-05T13:57:49.033Z,9.27
2022-08-05T13:59:57.482Z,5.60
2022-08-05T14:02:04.921Z,5.22
2022-08-05T14:04:08.851Z,7.28
2022-08-05T14:06:26.315Z,5.72
2022-08-05T14:08:32.630Z,8.60
2022-08-05T14:10:34.604Z,8.00
2022-08-05T14:12:36.273Z,6.90
2022-08-05T14:14:37.799Z,4.75
2022-08-05T14:16:39.323Z,5.85
2022-08-05T14:18:44.055Z,7.10
2022-08-05T14:20:47.280Z,4.95
2022-08-05T14:22:50.065Z,5.88
2022-08-05T14:24:53.352Z,5.57
2022-08-05T14:27:15.601Z,5.35
2022-08-05T14:29:17.154Z,5.32
2022-08-05T14:31:54.494Z,5.28
2022-08-05T14:34:00.186Z,6.35
2022-08-05T14:36:02.149Z,7.65
2022-08-05T14:38:03.705Z,6.70
2022-08-05T14:40:08.756Z,7.28
2022-08-05T14:42:21.256Z,7.95
2022-08-05T14:44:30.912Z,6.10
2022-08-05T14:46:35.082Z,4.72
2022-08-05T14:48:36.972Z,5.18
2022-08-05T14:50:40.890Z,6.20
2022-08-05T14:52:52.650Z,5.03
2022-08-05T14:54:55.291Z,4.75
2022-08-05T14:56:59.241Z,5.80
2022-08-05T14:59:01.535Z,7.05
2022-08-05T15:01:04.862Z,4.85
2022-08-05T15:03:17.865Z,4.63
2022-08-05T15:05:19.920Z,6.47
2022-08-05T15:08:05.583Z,7.28
2022-08-05T15:09:51.841Z,8.05
2022-08-05T15:11:55.869Z,5.38
2022-08-05T15:14:00.785Z,5.47
2022-08-05T15:16:02.783Z,8.75
2022-08-05T15:18:05.917Z,5.20
2022-08-05T15:20:15.689Z,6.07
2022-08-05T15:22:20.061Z,6.85
2022-08-05T15:24:23.037Z,5.28
2022-08-05T15:26:31.914Z,8.30
2022-08-05T15:28:34.097Z,5.53
2022-08-05T15:30:37.009Z,7.47
2022-08-05T15:32:39.900Z,8.02
2022-08-05T15:34:42.079Z,6.88
2022-08-05T15:36:43.799Z,5.70
2022-08-05T15:38:46.613Z,6.55
2022-08-05T15:41:20.768Z,7.63
2022-08-05T15:43:19.852Z,6.93
2022-08-05T15:45:23.126Z,8.85
2022-08-05T15:47:42.822Z,7.00
2022-08-05T15:49:56.714Z,6.07
2022-08-05T15:52:13.348Z,7.03
2022-08-05T15:54:18.038Z,7.32
2022-08-05T15:56:19.650Z,7.18
2022-08-05T15:58:23.300Z,7.43
2022-08-05T16:00:26.304Z,6.78
2022-08-05T16:02:46.202Z,7.95
2022-08-05T16:04:48.668Z,7.03
2022-08-05T16:06:50.215Z,7.57
2022-08-05T16:08:53.776Z,6.28
2022-08-05T16:10:57.208Z,6.22
2022-08-05T16:12:58.764Z,7.63
2022-08-05T16:15:01.002Z,7.18
2022-08-05T16:17:02.728Z,5.20
2022-08-05T16:19:07.430Z,6.05
2022-08-05T16:21:11.405Z,8.23
2022-08-05T16:23:15.290Z,6.40
2022-08-05T16:25:16.991Z,7.30
2022-08-05T16:27:18.786Z,6.88
2022-08-05T16:29:20.608Z,7.72
2022-08-05T16:31:22.974Z,9.93
2022-08-05T16:33:24.887Z,6.65
2022-08-05T16:35:32.544Z,7.57
2022-08-05T16:38:16.225Z,6.88
2022-08-05T16:40:04.614Z,6.38
2022-08-05T16:42:13.689Z,6.78
2022-08-05T16:44:18.407Z,10.52
2022-08-05T16:46:24.527Z,7.85
2022-08-05T16:48:33.601Z,7.57
2022-08-05T16:50:38.542Z,7.43
2022-08-05T16:52:40.048Z,6.35
2022-08-05T16:54:47.784Z,8.65
2022-08-05T16:56:52.238Z,6.47
2022-08-05T16:58:53.955Z,7.40
2022-08-05T17:00:56.156Z,5.70
2022-08-05T17:02:57.767Z,8.65
2022-08-05T17:04:59.321Z,6.28
2022-08-05T17:07:03.195Z,10.68
2022-08-05T17:09:12.610Z,12.18
2022-08-05T17:11:16.826Z,7.88
2022-08-05T17:13:21.670Z,14.02
2022-08-05T17:15:48.708Z,10.48
2022-08-05T17:17:54.988Z,11.65
2022-08-05T17:19:57.099Z,10.57
2022-08-05T17:21:58.804Z,6.47
2022-08-05T17:24:03.181Z,5.75
2022-08-05T17:26:07.652Z,5.90
2022-08-05T17:28:10.124Z,20.33
2022-08-05T17:30:19.136Z,9.63
2022-08-05T17:32:30.262Z,5.90
2022-08-05T17:34:35.468Z,7.95
2022-08-05T17:36:40.579Z,13.77
2022-08-05T17:38:42.387Z,5.35
2022-08-05T17:40:45.889Z,7.68
2022-08-05T17:42:51.247Z,4.90
2022-08-05T17:44:54.952Z,4.70
2022-08-05T17:46:56.470Z,4.88
2022-08-05T17:48:59.043Z,24.98
2022-08-05T17:51:00.582Z,4.07
2022-08-05T17:53:04.891Z,4.10
2022-08-05T17:55:07.842Z,3.03
2022-08-05T17:57:12.376Z,2.88
2022-08-05T17:59:14.123Z,3.67
2022-08-05T18:01:24.303Z,3.10
2022-08-05T18:03:57.814Z,4.40
2022-08-05T18:05:52.685Z,4.72
2022-08-05T18:07:55.229Z,8.23
2022-08-05T18:10:02.045Z,7.68
2022-08-05T18:12:13.107Z,4.50
2022-08-05T18:14:23.937Z,3.78
2022-08-05T18:16:25.448Z,4.00
2022-08-05T18:18:27.034Z,4.03
2022-08-05T18:20:29.190Z,4.13
2022-08-05T18:22:46.165Z,6.95
2022-08-05T18:24:55.032Z,6.15
2022-08-05T18:26:57.565Z,3.78
2022-08-05T18:29:01.130Z,3.22
2022-08-05T18:31:02.648Z,5.00
2022-08-05T18:33:04.679Z,4.68
2022-08-05T18:35:07.522Z,6.15
2022-08-05T18:37:32.810Z,5.15
2022-08-05T18:40:34.344Z,4.75
2022-08-05T18:42:03.702Z,6.63
2022-08-05T18:44:10.567Z,4.05
2022-08-05T18:46:14.207Z,3.75
2022-08-05T18:48:30.155Z,4.15
2022-08-05T18:50:44.982Z,4.30
2022-08-05T18:52:51.250Z,6.72
2022-08-05T18:54:54.520Z,2.33
2022-08-05T18:56:56.090Z,2.75
2022-08-05T18:59:01.232Z,3.40
2022-08-05T19:01:04.380Z,2.90
2022-08-05T19:03:06.974Z,3.28
2022-08-05T19:06:05.951Z,3.22
2022-08-05T19:07:45.308Z,3.00
2022-08-05T19:09:47.999Z,3.00
2022-08-05T19:12:00.768Z,3.70
2022-08-05T19:14:19.990Z,3.00
2022-08-05T19:16:30.075Z,3.92
2022-08-05T19:18:36.807Z,2.80
2022-08-05T19:20:46.810Z,3.53
2022-08-05T19:22:48.464Z,4.50
2022-08-05T19:24:55.983Z,3.83
2022-08-05T19:26:58.351Z,3.60
2022-08-05T19:28:59.892Z,2.53
2022-08-05T19:31:04.975Z,4.03
2022-08-05T19:33:16.657Z,5.05
2022-08-05T19:35:18.693Z,3.22
2022-08-05T19:37:29.928Z,2.17
2022-08-05T19:39:45.986Z,3.22
2022-08-05T19:42:07.333Z,3.80
2022-08-05T19:44:13.579Z,4.78
2022-08-05T19:46:16.634Z,3.70
2022-08-05T19:48:32.718Z,3.58
2022-08-05T19:50:35.590Z,3.85
2022-08-05T19:52:37.252Z,2.67
2022-08-05T19:54:39.073Z,4.75
2022-08-05T19:56:43.399Z,3.40
2022-08-05T19:58:54.199Z,2.88
2022-08-05T20:00:56.067Z,3.30
2022-08-05T20:02:57.689Z,2.72
2022-08-05T20:05:04.681Z,4.18
2022-08-05T20:07:13.191Z,3.30
2022-08-05T20:09:15.077Z,3.85
2022-08-05T20:11:19.465Z,3.00
2022-08-05T20:13:30.349Z,3.30
2022-08-05T20:15:52.935Z,4.78
2022-08-05T20:18:00.710Z,4.25
2022-08-05T20:20:09.142Z,3.45
2022-08-05T20:22:11.143Z,3.17
2022-08-05T20:24:13.000Z,4.65
2022-08-05T20:26:18.024Z,3.38
2022-08-05T20:28:20.117Z,3.47
2022-08-05T20:30:22.039Z,4.40
2022-08-05T20:32:28.314Z,3.70
2022-08-05T20:34:30.301Z,2.90
2022-08-05T20:36:33.966Z,3.28
2022-08-05T20:38:35.756Z,7.20
2022-08-05T20:40:37.574Z,3.92
2022-08-05T20:42:44.817Z,6.18
2022-08-05T20:44:46.637Z,5.57
2022-08-05T20:46:48.639Z,7.35
2022-08-05T20:48:51.214Z,4.32
2022-08-05T20:50:53.263Z,6.60
2022-08-05T20:52:56.281Z,3.33
2022-08-05T20:55:15.810Z,12.25
2022-08-05T20:57:42.172Z,3.90
2022-08-05T21:00:10.258Z,4.80
2022-08-05T21:02:02.676Z,4.30
2022-08-05T21:04:05.416Z,3.92
2022-08-05T21:06:28.162Z,5.88
2022-08-05T21:08:41.950Z,6.18
2022-08-05T21:10:49.072Z,5.07
2022-08-05T21:13:08.952Z,3.95
2022-08-05T21:15:12.716Z,5.38
2022-08-05T21:17:15.236Z,5.82
2022-08-05T21:19:17.183Z,3.20
2022-08-05T21:21:24.333Z,4.88
2022-08-05T21:23:26.084Z,6.80
2022-08-05T21:25:33.885Z,4.68
2022-08-05T21:27:38.487Z,4.05
2022-08-05T21:29:41.149Z,11.98
2022-08-05T21:31:42.682Z,8.85
2022-08-05T21:33:47.774Z,4.60
2022-08-05T21:35:58.714Z,3.92
2022-08-05T21:38:01.089Z,4.47
2022-08-05T21:40:04.410Z,5.78
2022-08-05T21:42:31.160Z,7.13
2022-08-05T21:44:31.615Z,5.85
2022-08-05T21:46:34.654Z,6.85
2022-08-05T21:48:36.499Z,4.95
2022-08-05T21:50:41.424Z,9.07
2022-08-05T21:52:58.872Z,4.88
2022-08-05T21:55:07.389Z,4.28
2022-08-05T21:57:30.964Z,4.72
2022-08-05T21:59:48.171Z,8.57
2022-08-05T22:01:54.565Z,5.90
2022-08-05T22:03:56.273Z,4.03
2022-08-05T22:05:57.819Z,7.40
2022-08-05T22:08:02.154Z,5.00
2022-08-05T22:10:04.673Z,3.67
2022-08-05T22:12:10.778Z,4.03
2022-08-05T22:14:33.746Z,7.10
2022-08-05T22:16:51.147Z,9.45
2022-08-05T22:18:54.680Z,5.18
2022-08-05T22:21:00.652Z,5.32
2022-08-05T22:23:16.770Z,6.55
2022-08-05T22:25:27.296Z,9.38
2022-08-05T22:28:08.742Z,5.82
2022-08-05T22:29:54.131Z,4.20
2022-08-05T22:31:59.751Z,4.00
2022-08-05T22:34:04.912Z,8.00
2022-08-05T22:36:07.880Z,7.20
2022-08-05T22:38:11.749Z,7.70
2022-08-05T22:40:16.778Z,4.65
2022-08-05T22:42:26.016Z,4.47
2022-08-05T22:44:29.231Z,3.90
2022-08-05T22:46:32.232Z,6.20
2022-08-05T22:48:34.505Z,4.13
2022-08-05T22:50:36.901Z,7.05
2022-08-05T22:52:47.833Z,3.90
2022-08-05T22:54:49.369Z,4.35
2022-08-05T22:56:50.925Z,6.05
2022-08-05T22:58:55.292Z,4.45
2022-08-05T23:00:57.107Z,7.78
2022-08-05T23:03:00.209Z,10.38
2022-08-05T23:05:06.966Z,9.57
2022-08-05T23:07:08.577Z,4.20
2022-08-05T23:09:26.921Z,4.13
2022-08-05T23:11:29.657Z,3.88
2022-08-05T23:13:32.262Z,3.63
2022-08-05T23:15:36.431Z,4.65
2022-08-05T23:18:01.233Z,3.72
2022-08-05T23:20:02.483Z,3.70
2022-08-05T23:22:04.461Z,3.13
2022-08-05T23:24:11.087Z,6.78
2022-08-05T23:26:13.057Z,4.80
2022-08-05T23:28:17.396Z,3.65
2022-08-05T23:30:18.968Z,3.92
2022-08-05T23:32:29.015Z,3.95
2022-08-05T23:34:30.796Z,4.15
2022-08-05T23:36:38.797Z,2.90
2022-08-05T23:38:45.995Z,2.78
2022-08-05T23:40:49.765Z,4.28
2022-08-05T23:42:53.613Z,4.57
2022-08-05T23:44:55.449Z,5.72
2022-08-05T23:46:56.990Z,3.42
2022-08-05T23:49:01.051Z,3.00
2022-08-05T23:51:03.354Z,3.97
2022-08-05T23:53:06.310Z,2.53
2022-08-05T23:55:24.667Z,4.00
2022-08-05T23:57:32.536Z,8.13
2022-08-05T23:59:37.755Z,10.82
